Terminal Aerodrome Forecast
Issued by NWS

Current Version | Previous Version | Text Only | Print | Product List | Glossary Off
Versions: 1 2 3 4 5 6 7 8 9 10 11 12 13 14 15 16 17 18 19 20

000
FTUS41 KPBZ 240200 AAA
TAFHLG
TAF AMD
KHLG 240257Z 2403/2424 10006KT P6SM OVC100
     FM240500 12008KT 3SM -RA OVC010
     FM241300 14010KT 6SM -RA OVC008
     FM242300 19012KT P6SM OVC010=

USA.gov is the U.S. government's official web portal to all federal, state and local government web resources and services.